sensor_id;sensor_type;location;lat;lon;timestamp;temperature;humidity
12303;DHT22;6214;48.012;7.862;2022-12-29T00:00:16;15.40;99.90
12303;DHT22;6214;48.012;7.862;2022-12-29T00:02:43;15.40;99.90
12303;DHT22;6214;48.012;7.862;2022-12-29T00:05:10;15.40;99.90
12303;DHT22;6214;48.012;7.862;2022-12-29T00:07:37;15.40;99.90
12303;DHT22;6214;48.012;7.862;2022-12-29T00:10:05;15.30;99.90
12303;DHT22;6214;48.012;7.862;2022-12-29T00:12:32;15.40;99.90
12303;DHT22;6214;48.012;7.862;2022-12-29T00:15:19;15.40;99.90
12303;DHT22;6214;48.012;7.862;2022-12-29T00:18:05;15.30;99.90
12303;DHT22;6214;48.012;7.862;2022-12-29T00:20:36;15.40;99.90
12303;DHT22;6214;48.012;7.862;2022-12-29T00:23:22;15.40;99.90
12303;DHT22;6214;48.012;7.862;2022-12-29T00:26:15;15.40;99.90
12303;DHT22;6214;48.012;7.862;2022-12-29T00:29:01;15.40;99.90
12303;DHT22;6214;48.012;7.862;2022-12-29T00:31:47;15.40;99.90
12303;DHT22;6214;48.012;7.862;2022-12-29T00:34:32;15.40;99.90
12303;DHT22;6214;48.012;7.862;2022-12-29T00:37:18;15.50;99.90
12303;DHT22;6214;48.012;7.862;2022-12-29T00:40:05;15.50;99.90
12303;DHT22;6214;48.012;7.862;2022-12-29T00:42:50;15.50;99.90
12303;DHT22;6214;48.012;7.862;2022-12-29T00:45:36;15.60;99.90
12303;DHT22;6214;48.012;7.862;2022-12-29T00:48:03;15.50;99.90
12303;DHT22;6214;48.012;7.862;2022-12-29T00:50:30;15.50;99.90
12303;DHT22;6214;48.012;7.862;2022-12-29T00:52:57;15.50;99.90
12303;DHT22;6214;48.012;7.862;2022-12-29T00:55:24;15.50;99.90
12303;DHT22;6214;48.012;7.862;2022-12-29T00:57:51;15.60;99.90
12303;DHT22;6214;48.012;7.862;2022-12-29T01:00:18;15.50;99.90
12303;DHT22;6214;48.012;7.862;2022-12-29T01:02:45;15.50;99.90
12303;DHT22;6214;48.012;7.862;2022-12-29T01:05:12;15.50;99.90
12303;DHT22;6214;48.012;7.862;2022-12-29T01:07:39;15.40;99.90
12303;DHT22;6214;48.012;7.862;2022-12-29T01:10:07;15.40;99.90
12303;DHT22;6214;48.012;7.862;2022-12-29T01:12:37;15.50;99.90
12303;DHT22;6214;48.012;7.862;2022-12-29T01:15:10;15.50;99.90
12303;DHT22;6214;48.012;7.862;2022-12-29T01:17:37;15.40;99.90
12303;DHT22;6214;48.012;7.862;2022-12-29T01:20:05;15.40;99.90
12303;DHT22;6214;48.012;7.862;2022-12-29T01:22:32;15.40;99.90
12303;DHT22;6214;48.012;7.862;2022-12-29T01:24:59;15.30;99.90
12303;DHT22;6214;48.012;7.862;2022-12-29T01:27:26;15.30;99.90
12303;DHT22;6214;48.012;7.862;2022-12-29T01:29:53;15.10;99.90
12303;DHT22;6214;48.012;7.862;2022-12-29T01:32:20;15.00;99.90
12303;DHT22;6214;48.012;7.862;2022-12-29T01:34:47;14.90;99.90
12303;DHT22;6214;48.012;7.862;2022-12-29T01:37:14;14.90;99.90
12303;DHT22;6214;48.012;7.862;2022-12-29T01:39:41;14.80;99.90
12303;DHT22;6214;48.012;7.862;2022-12-29T01:42:16;14.70;99.90
12303;DHT22;6214;48.012;7.862;2022-12-29T01:47:31;14.60;99.90
12303;DHT22;6214;48.012;7.862;2022-12-29T01:50:10;14.70;99.90
12303;DHT22;6214;48.012;7.862;2022-12-29T01:52:41;14.50;99.90
12303;DHT22;6214;48.012;7.862;2022-12-29T01:55:11;14.50;99.90
12303;DHT22;6214;48.012;7.862;2022-12-29T01:57:42;14.60;99.90
12303;DHT22;6214;48.012;7.862;2022-12-29T02:00:12;14.70;99.90
12303;DHT22;6214;48.012;7.862;2022-12-29T02:02:46;14.70;99.90
12303;DHT22;6214;48.012;7.862;2022-12-29T02:05:42;14.70;99.90
12303;DHT22;6214;48.012;7.862;2022-12-29T02:08:05;14.60;99.90
12303;DHT22;6214;48.012;7.862;2022-12-29T02:10:34;14.50;99.90
12303;DHT22;6214;48.012;7.862;2022-12-29T02:13:02;14.60;99.90
12303;DHT22;6214;48.012;7.862;2022-12-29T02:32:11;14.60;99.90
12303;DHT22;6214;48.012;7.862;2022-12-29T02:35:09;14.70;99.90
12303;DHT22;6214;48.012;7.862;2022-12-29T02:37:50;14.70;99.90
12303;DHT22;6214;48.012;7.862;2022-12-29T02:41:00;14.60;99.90
12303;DHT22;6214;48.012;7.862;2022-12-29T02:46:21;14.50;99.90
12303;DHT22;6214;48.012;7.862;2022-12-29T02:54:11;14.70;99.90
12303;DHT22;6214;48.012;7.862;2022-12-29T02:56:56;14.60;99.90
12303;DHT22;6214;48.012;7.862;2022-12-29T02:59:23;14.50;99.90
12303;DHT22;6214;48.012;7.862;2022-12-29T03:17:00;14.50;99.90
12303;DHT22;6214;48.012;7.862;2022-12-29T03:19:35;14.50;99.90
12303;DHT22;6214;48.012;7.862;2022-12-29T03:22:09;14.50;99.90
12303;DHT22;6214;48.012;7.862;2022-12-29T03:25:11;14.70;99.90
12303;DHT22;6214;48.012;7.862;2022-12-29T03:28:11;14.60;99.90
12303;DHT22;6214;48.012;7.862;2022-12-29T03:30:39;14.40;99.90
12303;DHT22;6214;48.012;7.862;2022-12-29T03:33:11;14.40;99.90
12303;DHT22;6214;48.012;7.862;2022-12-29T03:35:41;14.40;99.90
12303;DHT22;6214;48.012;7.862;2022-12-29T03:38:30;14.40;99.90
12303;DHT22;6214;48.012;7.862;2022-12-29T03:41:03;14.40;99.90
12303;DHT22;6214;48.012;7.862;2022-12-29T03:43:32;14.40;99.90
12303;DHT22;6214;48.012;7.862;2022-12-29T03:45:59;14.40;99.90
12303;DHT22;6214;48.012;7.862;2022-12-29T03:48:27;14.30;99.90
12303;DHT22;6214;48.012;7.862;2022-12-29T03:50:54;14.30;99.90
12303;DHT22;6214;48.012;7.862;2022-12-29T03:53:21;14.30;99.90
12303;DHT22;6214;48.012;7.862;2022-12-29T03:55:48;14.30;99.90
12303;DHT22;6214;48.012;7.862;2022-12-29T03:58:16;14.30;99.90
12303;DHT22;6214;48.012;7.862;2022-12-29T04:00:44;14.30;99.90
12303;DHT22;6214;48.012;7.862;2022-12-29T04:03:10;14.40;99.90
12303;DHT22;6214;48.012;7.862;2022-12-29T04:05:38;14.40;99.90
12303;DHT22;6214;48.012;7.862;2022-12-29T04:08:05;14.50;99.90
12303;DHT22;6214;48.012;7.862;2022-12-29T04:10:32;14.50;99.90
12303;DHT22;6214;48.012;7.862;2022-12-29T04:12:59;14.50;99.90
12303;DHT22;6214;48.012;7.862;2022-12-29T04:15:26;14.50;99.90
12303;DHT22;6214;48.012;7.862;2022-12-29T04:17:53;14.40;99.90
12303;DHT22;6214;48.012;7.862;2022-12-29T04:20:20;14.50;99.90
12303;DHT22;6214;48.012;7.862;2022-12-29T04:23:07;14.60;99.90
12303;DHT22;6214;48.012;7.862;2022-12-29T04:25:34;14.60;99.90
12303;DHT22;6214;48.012;7.862;2022-12-29T04:28:01;14.60;99.90
12303;DHT22;6214;48.012;7.862;2022-12-29T04:30:28;14.50;99.90
12303;DHT22;6214;48.012;7.862;2022-12-29T04:32:55;14.50;99.90
12303;DHT22;6214;48.012;7.862;2022-12-29T04:35:22;14.50;99.90
12303;DHT22;6214;48.012;7.862;2022-12-29T04:37:49;14.50;99.90
12303;DHT22;6214;48.012;7.862;2022-12-29T04:40:16;14.50;99.90
12303;DHT22;6214;48.012;7.862;2022-12-29T04:42:43;14.50;99.90
12303;DHT22;6214;48.012;7.862;2022-12-29T04:45:10;14.50;99.90
12303;DHT22;6214;48.012;7.862;2022-12-29T04:47:37;14.30;99.90
12303;DHT22;6214;48.012;7.862;2022-12-29T04:50:05;14.40;99.90
12303;DHT22;6214;48.012;7.862;2022-12-29T04:52:32;14.40;99.90
12303;DHT22;6214;48.012;7.862;2022-12-29T04:55:00;14.40;99.90
12303;DHT22;6214;48.012;7.862;2022-12-29T04:57:27;14.30;99.90
12303;DHT22;6214;48.012;7.862;2022-12-29T04:59:54;14.30;99.90
12303;DHT22;6214;48.012;7.862;2022-12-29T05:02:22;14.40;99.90
12303;DHT22;6214;48.012;7.862;2022-12-29T05:04:49;14.40;99.90
12303;DHT22;6214;48.012;7.862;2022-12-29T05:07:16;14.50;99.90
12303;DHT22;6214;48.012;7.862;2022-12-29T05:09:43;14.60;99.90
12303;DHT22;6214;48.012;7.862;2022-12-29T05:12:10;14.60;99.90
12303;DHT22;6214;48.012;7.862;2022-12-29T05:14:37;14.70;99.90
12303;DHT22;6214;48.012;7.862;2022-12-29T05:17:06;14.70;99.90
12303;DHT22;6214;48.012;7.862;2022-12-29T05:19:33;14.80;99.90
12303;DHT22;6214;48.012;7.862;2022-12-29T05:22:00;14.80;99.90
12303;DHT22;6214;48.012;7.862;2022-12-29T05:24:29;14.90;99.90
12303;DHT22;6214;48.012;7.862;2022-12-29T05:26:57;14.90;99.90
12303;DHT22;6214;48.012;7.862;2022-12-29T05:29:26;15.00;99.90
12303;DHT22;6214;48.012;7.862;2022-12-29T05:31:53;15.00;99.90
12303;DHT22;6214;48.012;7.862;2022-12-29T05:34:20;15.10;99.90
12303;DHT22;6214;48.012;7.862;2022-12-29T05:36:47;15.10;99.90
12303;DHT22;6214;48.012;7.862;2022-12-29T05:39:14;15.20;99.90
12303;DHT22;6214;48.012;7.862;2022-12-29T05:41:41;15.10;99.90
12303;DHT22;6214;48.012;7.862;2022-12-29T05:44:09;15.20;99.90
12303;DHT22;6214;48.012;7.862;2022-12-29T05:46:36;15.20;99.90
12303;DHT22;6214;48.012;7.862;2022-12-29T05:49:04;15.30;99.90
12303;DHT22;6214;48.012;7.862;2022-12-29T05:51:31;15.40;99.90
12303;DHT22;6214;48.012;7.862;2022-12-29T05:53:58;15.40;99.90
12303;DHT22;6214;48.012;7.862;2022-12-29T05:56:25;15.40;99.90
12303;DHT22;6214;48.012;7.862;2022-12-29T05:58:52;15.40;99.90
12303;DHT22;6214;48.012;7.862;2022-12-29T06:01:19;15.40;99.90
12303;DHT22;6214;48.012;7.862;2022-12-29T06:03:46;15.40;99.90
12303;DHT22;6214;48.012;7.862;2022-12-29T06:06:14;15.50;99.90
12303;DHT22;6214;48.012;7.862;2022-12-29T06:08:41;15.60;99.90
12303;DHT22;6214;48.012;7.862;2022-12-29T06:11:09;15.50;99.90
12303;DHT22;6214;48.012;7.862;2022-12-29T06:13:36;15.50;99.90
12303;DHT22;6214;48.012;7.862;2022-12-29T06:16:03;15.40;99.90
12303;DHT22;6214;48.012;7.862;2022-12-29T06:18:30;15.30;99.90
12303;DHT22;6214;48.012;7.862;2022-12-29T06:21:01;15.30;99.90
12303;DHT22;6214;48.012;7.862;2022-12-29T06:23:29;15.20;99.90
12303;DHT22;6214;48.012;7.862;2022-12-29T06:25:56;15.10;99.90
12303;DHT22;6214;48.012;7.862;2022-12-29T06:28:24;15.20;99.90
12303;DHT22;6214;48.012;7.862;2022-12-29T06:30:51;15.10;99.90
12303;DHT22;6214;48.012;7.862;2022-12-29T06:33:18;15.20;99.90
12303;DHT22;6214;48.012;7.862;2022-12-29T06:35:45;15.10;99.90
12303;DHT22;6214;48.012;7.862;2022-12-29T06:38:12;15.10;99.90
12303;DHT22;6214;48.012;7.862;2022-12-29T06:40:42;15.10;99.90
12303;DHT22;6214;48.012;7.862;2022-12-29T06:43:09;15.00;99.90
12303;DHT22;6214;48.012;7.862;2022-12-29T06:45:38;15.10;99.90
12303;DHT22;6214;48.012;7.862;2022-12-29T06:48:06;15.00;99.90
12303;DHT22;6214;48.012;7.862;2022-12-29T06:50:34;15.10;99.90
12303;DHT22;6214;48.012;7.862;2022-12-29T06:53:01;15.10;99.90
12303;DHT22;6214;48.012;7.862;2022-12-29T06:55:28;15.10;99.90
12303;DHT22;6214;48.012;7.862;2022-12-29T06:57:56;15.10;99.90
12303;DHT22;6214;48.012;7.862;2022-12-29T07:00:24;15.10;99.90
12303;DHT22;6214;48.012;7.862;2022-12-29T07:02:51;15.10;99.90
12303;DHT22;6214;48.012;7.862;2022-12-29T07:05:19;15.30;99.90
12303;DHT22;6214;48.012;7.862;2022-12-29T07:07:46;15.30;99.90
12303;DHT22;6214;48.012;7.862;2022-12-29T07:10:13;15.40;99.90
12303;DHT22;6214;48.012;7.862;2022-12-29T07:12:40;15.40;99.90
12303;DHT22;6214;48.012;7.862;2022-12-29T07:15:07;15.50;99.90
12303;DHT22;6214;48.012;7.862;2022-12-29T07:17:34;15.50;99.90
12303;DHT22;6214;48.012;7.862;2022-12-29T07:20:01;15.50;99.90
12303;DHT22;6214;48.012;7.862;2022-12-29T07:22:28;15.50;99.90
12303;DHT22;6214;48.012;7.862;2022-12-29T07:24:55;15.60;99.90
12303;DHT22;6214;48.012;7.862;2022-12-29T07:27:22;15.60;99.90
12303;DHT22;6214;48.012;7.862;2022-12-29T07:29:49;15.70;99.90
12303;DHT22;6214;48.012;7.862;2022-12-29T07:32:16;15.60;99.90
12303;DHT22;6214;48.012;7.862;2022-12-29T07:34:43;15.70;99.90
12303;DHT22;6214;48.012;7.862;2022-12-29T07:37:12;15.80;99.90
12303;DHT22;6214;48.012;7.862;2022-12-29T07:39:40;15.70;99.90
12303;DHT22;6214;48.012;7.862;2022-12-29T07:42:07;15.70;99.90
12303;DHT22;6214;48.012;7.862;2022-12-29T07:44:34;15.70;99.90
12303;DHT22;6214;48.012;7.862;2022-12-29T07:47:03;15.70;99.90
12303;DHT22;6214;48.012;7.862;2022-12-29T07:49:30;15.70;99.90
12303;DHT22;6214;48.012;7.862;2022-12-29T07:51:57;15.70;99.90
12303;DHT22;6214;48.012;7.862;2022-12-29T07:54:24;15.70;99.90
12303;DHT22;6214;48.012;7.862;2022-12-29T07:56:52;15.80;99.90
12303;DHT22;6214;48.012;7.862;2022-12-29T07:59:19;15.80;99.90
12303;DHT22;6214;48.012;7.862;2022-12-29T08:01:46;15.80;99.90
12303;DHT22;6214;48.012;7.862;2022-12-29T08:04:13;15.70;99.90
12303;DHT22;6214;48.012;7.862;2022-12-29T08:06:40;15.70;99.90
12303;DHT22;6214;48.012;7.862;2022-12-29T08:09:08;15.80;99.90
12303;DHT22;6214;48.012;7.862;2022-12-29T08:11:44;15.70;99.90
12303;DHT22;6214;48.012;7.862;2022-12-29T08:14:11;15.80;99.90
12303;DHT22;6214;48.012;7.862;2022-12-29T08:16:38;15.90;99.90
12303;DHT22;6214;48.012;7.862;2022-12-29T08:19:05;15.90;99.90
12303;DHT22;6214;48.012;7.862;2022-12-29T08:21:32;15.80;99.90
12303;DHT22;6214;48.012;7.862;2022-12-29T08:23:59;15.80;99.90
12303;DHT22;6214;48.012;7.862;2022-12-29T08:26:26;15.80;99.90
12303;DHT22;6214;48.012;7.862;2022-12-29T08:28:54;15.80;99.90
12303;DHT22;6214;48.012;7.862;2022-12-29T08:31:23;15.80;99.90
12303;DHT22;6214;48.012;7.862;2022-12-29T08:33:51;15.80;99.90
12303;DHT22;6214;48.012;7.862;2022-12-29T08:36:18;15.80;99.90
12303;DHT22;6214;48.012;7.862;2022-12-29T08:38:45;15.80;99.90
12303;DHT22;6214;48.012;7.862;2022-12-29T08:41:12;15.90;99.90
12303;DHT22;6214;48.012;7.862;2022-12-29T08:43:39;15.90;99.90
12303;DHT22;6214;48.012;7.862;2022-12-29T08:46:06;16.00;99.90
12303;DHT22;6214;48.012;7.862;2022-12-29T08:48:33;15.90;99.90
12303;DHT22;6214;48.012;7.862;2022-12-29T08:51:00;15.90;99.90
12303;DHT22;6214;48.012;7.862;2022-12-29T08:53:28;15.90;99.90
12303;DHT22;6214;48.012;7.862;2022-12-29T08:55:58;15.90;99.90
12303;DHT22;6214;48.012;7.862;2022-12-29T08:58:31;15.90;99.90
12303;DHT22;6214;48.012;7.862;2022-12-29T09:00:59;15.90;99.90
12303;DHT22;6214;48.012;7.862;2022-12-29T09:03:26;15.80;99.90
12303;DHT22;6214;48.012;7.862;2022-12-29T09:06:15;15.80;99.90
12303;DHT22;6214;48.012;7.862;2022-12-29T09:08:43;15.80;99.90
12303;DHT22;6214;48.012;7.862;2022-12-29T09:11:19;15.60;99.90
12303;DHT22;6214;48.012;7.862;2022-12-29T09:13:47;15.70;99.90
12303;DHT22;6214;48.012;7.862;2022-12-29T09:16:15;15.60;99.90
12303;DHT22;6214;48.012;7.862;2022-12-29T09:18:43;15.60;99.90
12303;DHT22;6214;48.012;7.862;2022-12-29T09:21:11;15.80;99.90
12303;DHT22;6214;48.012;7.862;2022-12-29T09:23:38;15.70;99.90
12303;DHT22;6214;48.012;7.862;2022-12-29T09:26:07;15.60;99.90
12303;DHT22;6214;48.012;7.862;2022-12-29T09:28:34;15.70;99.90
12303;DHT22;6214;48.012;7.862;2022-12-29T09:31:02;15.60;99.90
12303;DHT22;6214;48.012;7.862;2022-12-29T09:33:29;15.50;99.90
12303;DHT22;6214;48.012;7.862;2022-12-29T09:35:57;15.70;99.90
12303;DHT22;6214;48.012;7.862;2022-12-29T09:38:26;15.80;99.90
12303;DHT22;6214;48.012;7.862;2022-12-29T09:41:00;15.70;99.90
12303;DHT22;6214;48.012;7.862;2022-12-29T09:46:26;15.80;99.90
12303;DHT22;6214;48.012;7.862;2022-12-29T09:51:45;15.70;99.90
12303;DHT22;6214;48.012;7.862;2022-12-29T09:54:35;15.60;99.90
12303;DHT22;6214;48.012;7.862;2022-12-29T09:57:04;15.60;99.90
12303;DHT22;6214;48.012;7.862;2022-12-29T09:59:39;15.70;99.90
12303;DHT22;6214;48.012;7.862;2022-12-29T10:02:38;15.60;99.90
12303;DHT22;6214;48.012;7.862;2022-12-29T10:05:24;15.50;99.90
12303;DHT22;6214;48.012;7.862;2022-12-29T10:08:10;15.40;99.90
12303;DHT22;6214;48.012;7.862;2022-12-29T10:16:17;15.20;99.90
12303;DHT22;6214;48.012;7.862;2022-12-29T10:21:49;15.30;99.90
12303;DHT22;6214;48.012;7.862;2022-12-29T10:24:19;15.30;99.90
12303;DHT22;6214;48.012;7.862;2022-12-29T10:26:50;15.20;99.90
12303;DHT22;6214;48.012;7.862;2022-12-29T10:29:19;15.20;99.90
12303;DHT22;6214;48.012;7.862;2022-12-29T10:31:54;15.20;99.90
12303;DHT22;6214;48.012;7.862;2022-12-29T10:34:26;15.10;99.90
12303;DHT22;6214;48.012;7.862;2022-12-29T10:36:58;15.00;99.90
12303;DHT22;6214;48.012;7.862;2022-12-29T10:39:33;15.00;99.90
12303;DHT22;6214;48.012;7.862;2022-12-29T10:42:15;15.00;99.90
12303;DHT22;6214;48.012;7.862;2022-12-29T10:44:46;15.10;99.90
12303;DHT22;6214;48.012;7.862;2022-12-29T10:47:26;15.00;99.90
12303;DHT22;6214;48.012;7.862;2022-12-29T10:49:54;14.90;99.90
12303;DHT22;6214;48.012;7.862;2022-12-29T10:52:22;14.70;99.90
12303;DHT22;6214;48.012;7.862;2022-12-29T10:55:02;14.90;99.90
12303;DHT22;6214;48.012;7.862;2022-12-29T10:57:35;15.00;99.90
12303;DHT22;6214;48.012;7.862;2022-12-29T11:00:14;15.10;99.90
12303;DHT22;6214;48.012;7.862;2022-12-29T11:06:03;15.40;99.90
12303;DHT22;6214;48.012;7.862;2022-12-29T11:08:36;15.40;99.90
12303;DHT22;6214;48.012;7.862;2022-12-29T11:11:07;15.50;99.90
12303;DHT22;6214;48.012;7.862;2022-12-29T11:13:56;15.40;99.90
12303;DHT22;6214;48.012;7.862;2022-12-29T11:16:31;15.60;99.90
12303;DHT22;6214;48.012;7.862;2022-12-29T11:19:00;15.60;99.90
12303;DHT22;6214;48.012;7.862;2022-12-29T11:21:36;15.60;99.90
12303;DHT22;6214;48.012;7.862;2022-12-29T11:24:42;15.60;99.90
12303;DHT22;6214;48.012;7.862;2022-12-29T11:27:22;15.60;99.90
12303;DHT22;6214;48.012;7.862;2022-12-29T11:29:51;15.40;99.90
12303;DHT22;6214;48.012;7.862;2022-12-29T11:34:54;15.70;99.90
12303;DHT22;6214;48.012;7.862;2022-12-29T11:40:18;15.90;99.90
12303;DHT22;6214;48.012;7.862;2022-12-29T11:42:58;15.90;99.90
12303;DHT22;6214;48.012;7.862;2022-12-29T11:45:32;15.90;99.90
12303;DHT22;6214;48.012;7.862;2022-12-29T11:48:12;15.80;99.90
12303;DHT22;6214;48.012;7.862;2022-12-29T11:50:42;15.80;99.90
12303;DHT22;6214;48.012;7.862;2022-12-29T11:53:24;15.90;99.90
12303;DHT22;6214;48.012;7.862;2022-12-29T11:56:08;16.00;99.90
12303;DHT22;6214;48.012;7.862;2022-12-29T11:58:37;15.90;99.90
12303;DHT22;6214;48.012;7.862;2022-12-29T12:01:18;16.00;99.90
12303;DHT22;6214;48.012;7.862;2022-12-29T12:03:56;16.10;99.90
12303;DHT22;6214;48.012;7.862;2022-12-29T12:06:27;16.00;99.90
12303;DHT22;6214;48.012;7.862;2022-12-29T12:08:55;15.80;99.90
12303;DHT22;6214;48.012;7.862;2022-12-29T12:11:32;15.80;99.90
12303;DHT22;6214;48.012;7.862;2022-12-29T12:14:14;15.90;99.90
12303;DHT22;6214;48.012;7.862;2022-12-29T12:16:54;15.90;99.90
12303;DHT22;6214;48.012;7.862;2022-12-29T12:22:21;16.20;99.90
12303;DHT22;6214;48.012;7.862;2022-12-29T12:25:03;16.10;99.90
12303;DHT22;6214;48.012;7.862;2022-12-29T12:28:10;15.80;99.90
12303;DHT22;6214;48.012;7.862;2022-12-29T12:30:36;15.60;99.90
12303;DHT22;6214;48.012;7.862;2022-12-29T12:33:25;15.90;99.90
12303;DHT22;6214;48.012;7.862;2022-12-29T12:36:11;15.90;99.90
12303;DHT22;6214;48.012;7.862;2022-12-29T12:39:12;15.80;99.90
12303;DHT22;6214;48.012;7.862;2022-12-29T12:53:00;16.30;99.90
12303;DHT22;6214;48.012;7.862;2022-12-29T12:59:03;16.60;99.90
12303;DHT22;6214;48.012;7.862;2022-12-29T13:07:20;16.40;99.90
12303;DHT22;6214;48.012;7.862;2022-12-29T13:27:06;15.80;99.90
12303;DHT22;6214;48.012;7.862;2022-12-29T13:29:49;15.80;99.90
12303;DHT22;6214;48.012;7.862;2022-12-29T13:38:04;15.30;99.90
12303;DHT22;6214;48.012;7.862;2022-12-29T13:40:36;15.40;99.90
12303;DHT22;6214;48.012;7.862;2022-12-29T13:43:06;15.40;99.90
12303;DHT22;6214;48.012;7.862;2022-12-29T13:45:34;15.40;99.90
12303;DHT22;6214;48.012;7.862;2022-12-29T13:48:23;15.30;99.90
12303;DHT22;6214;48.012;7.862;2022-12-29T13:50:57;15.20;99.90
12303;DHT22;6214;48.012;7.862;2022-12-29T13:56:18;15.20;99.90
12303;DHT22;6214;48.012;7.862;2022-12-29T13:58:53;15.20;99.90
12303;DHT22;6214;48.012;7.862;2022-12-29T14:03:53;15.20;99.90
12303;DHT22;6214;48.012;7.862;2022-12-29T14:06:23;15.20;99.90
12303;DHT22;6214;48.012;7.862;2022-12-29T14:11:39;15.20;99.90
12303;DHT22;6214;48.012;7.862;2022-12-29T14:14:21;15.20;99.90
12303;DHT22;6214;48.012;7.862;2022-12-29T14:16:49;15.10;99.90
12303;DHT22;6214;48.012;7.862;2022-12-29T14:22:02;15.00;99.90
12303;DHT22;6214;48.012;7.862;2022-12-29T14:29:49;15.00;99.90
12303;DHT22;6214;48.012;7.862;2022-12-29T14:35:00;15.00;99.90
12303;DHT22;6214;48.012;7.862;2022-12-29T14:37:47;14.90;99.90
12303;DHT22;6214;48.012;7.862;2022-12-29T14:40:24;14.90;99.90
12303;DHT22;6214;48.012;7.862;2022-12-29T14:42:56;15.00;99.90
12303;DHT22;6214;48.012;7.862;2022-12-29T14:45:30;14.90;99.90
12303;DHT22;6214;48.012;7.862;2022-12-29T14:47:59;14.90;99.90
12303;DHT22;6214;48.012;7.862;2022-12-29T14:50:40;14.90;99.90
12303;DHT22;6214;48.012;7.862;2022-12-29T14:56:09;14.80;99.90
12303;DHT22;6214;48.012;7.862;2022-12-29T14:58:47;14.80;99.90
12303;DHT22;6214;48.012;7.862;2022-12-29T15:04:23;14.80;99.90
12303;DHT22;6214;48.012;7.862;2022-12-29T15:06:52;14.80;99.90
12303;DHT22;6214;48.012;7.862;2022-12-29T15:14:55;14.60;99.90
12303;DHT22;6214;48.012;7.862;2022-12-29T15:17:33;14.40;99.90
12303;DHT22;6214;48.012;7.862;2022-12-29T15:20:27;14.20;99.90
12303;DHT22;6214;48.012;7.862;2022-12-29T15:23:02;14.00;99.90
12303;DHT22;6214;48.012;7.862;2022-12-29T15:25:30;14.00;99.90
12303;DHT22;6214;48.012;7.862;2022-12-29T15:28:02;14.00;99.90
12303;DHT22;6214;48.012;7.862;2022-12-29T15:30:29;14.00;99.90
12303;DHT22;6214;48.012;7.862;2022-12-29T15:32:56;14.00;99.90
12303;DHT22;6214;48.012;7.862;2022-12-29T15:35:31;14.00;99.90
12303;DHT22;6214;48.012;7.862;2022-12-29T15:37:58;14.10;99.90
12303;DHT22;6214;48.012;7.862;2022-12-29T15:40:28;14.10;99.90
12303;DHT22;6214;48.012;7.862;2022-12-29T15:46:00;14.10;99.90
12303;DHT22;6214;48.012;7.862;2022-12-29T15:48:28;14.10;99.90
12303;DHT22;6214;48.012;7.862;2022-12-29T15:50:57;14.10;99.90
12303;DHT22;6214;48.012;7.862;2022-12-29T15:53:30;14.10;99.90
12303;DHT22;6214;48.012;7.862;2022-12-29T15:56:01;14.10;99.90
12303;DHT22;6214;48.012;7.862;2022-12-29T15:58:41;14.10;99.90
12303;DHT22;6214;48.012;7.862;2022-12-29T16:01:20;14.10;99.90
12303;DHT22;6214;48.012;7.862;2022-12-29T16:03:51;14.00;99.90
12303;DHT22;6214;48.012;7.862;2022-12-29T16:09:18;14.10;99.90
12303;DHT22;6214;48.012;7.862;2022-12-29T16:11:57;14.00;99.90
12303;DHT22;6214;48.012;7.862;2022-12-29T16:14:41;14.00;99.90
12303;DHT22;6214;48.012;7.862;2022-12-29T16:17:13;13.90;99.90
12303;DHT22;6214;48.012;7.862;2022-12-29T16:20:34;13.90;99.90
12303;DHT22;6214;48.012;7.862;2022-12-29T16:22:48;13.90;99.90
12303;DHT22;6214;48.012;7.862;2022-12-29T16:25:23;13.90;99.90
12303;DHT22;6214;48.012;7.862;2022-12-29T16:27:52;13.90;99.90
12303;DHT22;6214;48.012;7.862;2022-12-29T16:30:24;13.90;99.90
12303;DHT22;6214;48.012;7.862;2022-12-29T16:33:02;13.80;99.90
12303;DHT22;6214;48.012;7.862;2022-12-29T16:36:00;13.80;99.90
12303;DHT22;6214;48.012;7.862;2022-12-29T16:38:33;13.80;99.90
12303;DHT22;6214;48.012;7.862;2022-12-29T16:41:02;13.90;99.90
12303;DHT22;6214;48.012;7.862;2022-12-29T16:43:31;14.00;99.90
12303;DHT22;6214;48.012;7.862;2022-12-29T16:48:29;13.80;99.90
12303;DHT22;6214;48.012;7.862;2022-12-29T16:51:13;13.90;99.90
12303;DHT22;6214;48.012;7.862;2022-12-29T16:53:42;13.90;99.90
12303;DHT22;6214;48.012;7.862;2022-12-29T16:56:17;13.90;99.90
12303;DHT22;6214;48.012;7.862;2022-12-29T16:58:50;14.00;99.90
12303;DHT22;6214;48.012;7.862;2022-12-29T17:01:19;14.00;99.90
12303;DHT22;6214;48.012;7.862;2022-12-29T17:03:52;13.90;99.90
12303;DHT22;6214;48.012;7.862;2022-12-29T17:06:22;13.90;99.90
12303;DHT22;6214;48.012;7.862;2022-12-29T17:08:50;13.80;99.90
12303;DHT22;6214;48.012;7.862;2022-12-29T17:11:27;13.80;99.90
12303;DHT22;6214;48.012;7.862;2022-12-29T17:14:39;13.60;99.90
12303;DHT22;6214;48.012;7.862;2022-12-29T17:17:32;13.50;99.90
12303;DHT22;6214;48.012;7.862;2022-12-29T17:20:19;13.50;99.90
12303;DHT22;6214;48.012;7.862;2022-12-29T17:22:47;13.40;99.90
12303;DHT22;6214;48.012;7.862;2022-12-29T17:25:18;13.30;99.90
12303;DHT22;6214;48.012;7.862;2022-12-29T17:27:58;13.30;99.90
12303;DHT22;6214;48.012;7.862;2022-12-29T17:30:28;13.30;99.90
12303;DHT22;6214;48.012;7.862;2022-12-29T17:33:08;13.20;99.90
12303;DHT22;6214;48.012;7.862;2022-12-29T17:35:36;13.10;99.90
12303;DHT22;6214;48.012;7.862;2022-12-29T17:38:21;13.10;99.90
12303;DHT22;6214;48.012;7.862;2022-12-29T17:40:49;11.90;99.90
12303;DHT22;6214;48.012;7.862;2022-12-29T17:43:17;13.10;99.90
12303;DHT22;6214;48.012;7.862;2022-12-29T17:45:55;13.00;99.90
12303;DHT22;6214;48.012;7.862;2022-12-29T17:48:23;13.10;99.90
12303;DHT22;6214;48.012;7.862;2022-12-29T17:50:52;13.10;99.90
12303;DHT22;6214;48.012;7.862;2022-12-29T17:53:22;13.10;99.90
12303;DHT22;6214;48.012;7.862;2022-12-29T17:55:50;13.20;99.90
12303;DHT22;6214;48.012;7.862;2022-12-29T17:58:27;13.20;99.90
12303;DHT22;6214;48.012;7.862;2022-12-29T18:00:57;13.30;99.90
12303;DHT22;6214;48.012;7.862;2022-12-29T18:03:33;13.40;99.90
12303;DHT22;6214;48.012;7.862;2022-12-29T18:06:02;13.40;99.90
12303;DHT22;6214;48.012;7.862;2022-12-29T18:08:33;13.30;99.90
12303;DHT22;6214;48.012;7.862;2022-12-29T18:11:01;13.30;99.90
12303;DHT22;6214;48.012;7.862;2022-12-29T18:13:30;13.40;99.90
12303;DHT22;6214;48.012;7.862;2022-12-29T18:16:12;13.40;99.90
12303;DHT22;6214;48.012;7.862;2022-12-29T18:18:39;13.50;99.90
12303;DHT22;6214;48.012;7.862;2022-12-29T18:21:17;13.50;99.90
12303;DHT22;6214;48.012;7.862;2022-12-29T18:23:45;13.40;99.90
12303;DHT22;6214;48.012;7.862;2022-12-29T18:26:17;13.40;99.90
12303;DHT22;6214;48.012;7.862;2022-12-29T18:28:51;13.40;99.90
12303;DHT22;6214;48.012;7.862;2022-12-29T18:31:31;13.50;99.90
12303;DHT22;6214;48.012;7.862;2022-12-29T18:34:00;13.50;99.90
12303;DHT22;6214;48.012;7.862;2022-12-29T18:36:28;13.60;99.90
12303;DHT22;6214;48.012;7.862;2022-12-29T18:38:55;13.60;99.90
12303;DHT22;6214;48.012;7.862;2022-12-29T18:41:27;13.60;99.90
12303;DHT22;6214;48.012;7.862;2022-12-29T18:43:58;13.60;99.90
12303;DHT22;6214;48.012;7.862;2022-12-29T18:46:25;13.70;99.90